createdAt,value
2019-03-19T00:01:41.575Z,9.03
2019-03-19T00:04:11.499Z,9.15
2019-03-19T00:06:41.261Z,9.08
2019-03-19T00:09:11.019Z,9.15
2019-03-19T00:11:40.807Z,9.23
2019-03-19T00:14:10.704Z,9.23
2019-03-19T00:16:40.664Z,9.16
2019-03-19T00:19:10.425Z,9.28
2019-03-19T00:21:40.347Z,9.11
2019-03-19T00:24:10.267Z,9.17
2019-03-19T00:26:40.083Z,9.08
2019-03-19T00:29:10.029Z,8.79
2019-03-19T00:31:39.988Z,8.80
2019-03-19T00:34:09.852Z,8.90
2019-03-19T00:36:40.672Z,8.92
2019-03-19T00:39:10.632Z,9.00
2019-03-19T00:41:40.404Z,8.93
2019-03-19T00:44:10.313Z,8.98
2019-03-19T00:46:40.103Z,8.94
2019-03-19T00:49:09.977Z,8.91
2019-03-19T00:51:39.762Z,9.00
2019-03-19T00:54:09.618Z,9.13
2019-03-19T00:56:39.516Z,9.18
2019-03-19T00:59:09.308Z,9.17
2019-03-19T01:01:39.171Z,9.16
2019-03-19T01:04:08.931Z,9.18
2019-03-19T01:06:38.771Z,9.26
2019-03-19T01:09:08.953Z,9.20
2019-03-19T01:11:38.686Z,9.06
2019-03-19T01:14:08.528Z,9.00
2019-03-19T01:16:38.252Z,8.90
2019-03-19T01:19:08.131Z,8.82
2019-03-19T01:21:37.989Z,8.78
2019-03-19T01:24:07.757Z,8.78
2019-03-19T01:26:37.684Z,8.77
2019-03-19T01:29:07.703Z,8.75
2019-03-19T01:31:37.526Z,8.76
2019-03-19T01:34:07.331Z,8.75
2019-03-19T01:36:37.078Z,8.77
2019-03-19T01:39:07.896Z,8.81
2019-03-19T01:41:37.686Z,8.76
2019-03-19T01:44:07.454Z,8.77
2019-03-19T01:46:37.111Z,8.54
2019-03-19T01:49:07.052Z,8.34
2019-03-19T01:51:36.882Z,8.45
2019-03-19T01:54:06.662Z,8.39
2019-03-19T01:56:36.365Z,8.42
2019-03-19T01:59:06.363Z,8.46
2019-03-19T02:01:35.997Z,8.46
2019-03-19T02:04:05.816Z,8.53
2019-03-19T02:06:35.569Z,8.52
2019-03-19T02:09:07.266Z,8.53
2019-03-19T02:11:38.403Z,8.60
2019-03-19T02:14:08.446Z,8.52
2019-03-19T02:16:38.159Z,8.56
2019-03-19T02:19:07.973Z,8.56
2019-03-19T02:21:37.953Z,8.67
2019-03-19T02:24:07.700Z,8.30
2019-03-19T02:26:37.424Z,8.49
2019-03-19T02:29:07.303Z,8.51
2019-03-19T02:31:37.049Z,8.53
2019-03-19T02:34:07.000Z,8.61
2019-03-19T02:36:36.808Z,8.50
2019-03-19T02:39:08.149Z,8.53
2019-03-19T02:41:37.985Z,8.51
2019-03-19T02:44:07.760Z,8.49
2019-03-19T02:46:37.703Z,8.53
2019-03-19T02:49:07.422Z,8.58
2019-03-19T02:51:37.320Z,8.67
2019-03-19T02:54:07.035Z,8.53
2019-03-19T02:56:36.897Z,8.56
2019-03-19T02:59:06.651Z,8.60
2019-03-19T03:01:36.491Z,8.59
2019-03-19T03:04:06.097Z,8.38
2019-03-19T03:06:35.976Z,8.72
2019-03-19T03:09:07.607Z,8.89
2019-03-19T03:11:37.497Z,8.91
2019-03-19T03:14:07.376Z,8.88
2019-03-19T03:16:37.474Z,8.99
2019-03-19T03:19:07.430Z,8.97
2019-03-19T03:21:37.341Z,9.02
2019-03-19T03:24:07.084Z,8.83
2019-03-19T03:26:47.846Z,8.83
2019-03-19T03:29:08.414Z,8.85
2019-03-19T03:31:38.163Z,8.77
2019-03-19T03:34:07.830Z,8.75
2019-03-19T03:36:37.555Z,8.72
2019-03-19T03:39:08.865Z,8.65
2019-03-19T03:41:38.601Z,7.92
2019-03-19T03:44:08.244Z,7.87
2019-03-19T03:46:38.206Z,7.63
2019-03-19T03:49:07.946Z,7.37
2019-03-19T03:51:37.664Z,7.49
2019-03-19T03:54:07.578Z,7.65
2019-03-19T03:56:37.416Z,7.64
2019-03-19T03:59:07.105Z,7.63
2019-03-19T04:01:36.865Z,7.32
2019-03-19T04:04:06.642Z,7.41
2019-03-19T04:06:36.615Z,7.47
2019-03-19T04:09:09.358Z,7.41
2019-03-19T04:11:39.476Z,7.54
2019-03-19T04:14:09.204Z,7.61
2019-03-19T04:16:38.882Z,7.62
2019-03-19T04:19:08.578Z,7.62
2019-03-19T04:21:38.336Z,7.54
2019-03-19T04:24:08.238Z,7.64
2019-03-19T04:26:38.056Z,7.45
2019-03-19T04:29:07.889Z,7.30
2019-03-19T04:31:37.655Z,7.00
2019-03-19T04:34:07.593Z,7.05
2019-03-19T04:36:37.449Z,7.28
2019-03-19T04:39:08.756Z,7.38
2019-03-19T04:41:40.314Z,7.57
2019-03-19T04:44:10.021Z,7.54
2019-03-19T04:46:39.824Z,7.62
2019-03-19T04:49:09.794Z,7.72
2019-03-19T04:51:39.640Z,7.74
2019-03-19T04:54:09.491Z,7.81
2019-03-19T04:56:39.451Z,8.08
2019-03-19T04:59:09.094Z,8.15
2019-03-19T05:01:38.824Z,8.27
2019-03-19T05:04:08.589Z,8.45
2019-03-19T05:06:38.233Z,8.46
2019-03-19T05:09:09.297Z,8.54
2019-03-19T05:11:39.359Z,8.55
2019-03-19T05:14:09.136Z,8.55
2019-03-19T05:16:38.927Z,8.51
2019-03-19T05:19:08.687Z,8.48
2019-03-19T05:21:38.574Z,8.41
2019-03-19T05:24:08.277Z,8.54
2019-03-19T05:26:38.141Z,8.46
2019-03-19T05:29:08.122Z,8.42
2019-03-19T05:31:37.934Z,8.58
2019-03-19T05:34:07.781Z,8.59
2019-03-19T05:36:37.538Z,8.83
2019-03-19T05:39:08.386Z,9.00
2019-03-19T05:41:38.138Z,9.18
2019-03-19T05:44:08.011Z,9.35
2019-03-19T05:46:37.724Z,9.44
2019-03-19T05:49:07.576Z,9.72
2019-03-19T05:51:37.350Z,9.96
2019-03-19T05:54:07.284Z,10.15
2019-03-19T05:56:37.028Z,10.41
2019-03-19T05:59:06.796Z,10.63
2019-03-19T06:01:36.701Z,10.86
2019-03-19T06:04:06.362Z,11.05
2019-03-19T06:06:36.200Z,11.28
2019-03-19T06:09:08.557Z,11.43
2019-03-19T06:11:38.319Z,11.54
2019-03-19T06:14:08.098Z,11.69
2019-03-19T06:16:37.746Z,11.71
2019-03-19T06:19:07.579Z,11.93
2019-03-19T06:21:37.547Z,12.12
2019-03-19T06:24:07.414Z,12.30
2019-03-19T06:26:37.371Z,12.45
2019-03-19T06:29:07.245Z,12.61
2019-03-19T06:31:37.163Z,12.72
2019-03-19T06:34:07.094Z,12.85
2019-03-19T06:36:37.024Z,13.04
2019-03-19T06:39:09.167Z,13.13
2019-03-19T06:41:39.103Z,13.04
2019-03-19T06:44:10.308Z,13.01
2019-03-19T06:46:39.944Z,13.26
2019-03-19T06:49:09.902Z,13.31
2019-03-19T06:51:39.754Z,13.37
2019-03-19T06:54:09.671Z,13.22
2019-03-19T06:56:39.690Z,13.24
2019-03-19T06:59:09.513Z,13.48
2019-03-19T07:01:39.309Z,13.72
2019-03-19T07:04:10.407Z,13.69
2019-03-19T07:06:40.173Z,13.86
2019-03-19T07:09:10.398Z,14.08
2019-03-19T07:11:40.151Z,13.83
2019-03-19T07:14:10.026Z,13.74
2019-03-19T07:16:39.638Z,13.53
2019-03-19T07:19:09.519Z,13.39
2019-03-19T07:21:39.499Z,13.52
2019-03-19T07:24:09.617Z,13.75
2019-03-19T07:26:40.545Z,13.84
2019-03-19T07:29:10.376Z,14.00
2019-03-19T07:31:40.170Z,13.93
2019-03-19T07:34:10.024Z,14.02
2019-03-19T07:36:39.710Z,13.85
2019-03-19T07:39:10.243Z,13.68
2019-03-19T07:41:40.230Z,13.88
2019-03-19T07:44:09.946Z,14.15
2019-03-19T07:46:39.867Z,14.48
2019-03-19T07:49:09.757Z,14.39
2019-03-19T07:51:39.493Z,14.43
2019-03-19T07:54:09.384Z,14.19
2019-03-19T07:56:39.152Z,14.34
2019-03-19T07:59:09.010Z,14.21
2019-03-19T08:01:38.859Z,14.30
2019-03-19T08:04:08.780Z,14.37
2019-03-19T08:06:38.648Z,14.25
2019-03-19T08:09:09.133Z,14.49
2019-03-19T08:11:38.960Z,14.74
2019-03-19T08:14:08.899Z,14.80
2019-03-19T08:16:38.764Z,15.35
2019-03-19T08:19:08.431Z,16.11
2019-03-19T08:21:38.317Z,16.36
2019-03-19T08:24:08.147Z,16.14
2019-03-19T08:26:38.047Z,15.96
2019-03-19T08:29:07.976Z,16.09
2019-03-19T08:31:37.923Z,16.44
2019-03-19T08:34:07.769Z,16.31
2019-03-19T08:37:12.218Z,15.99
2019-03-19T08:39:53.625Z,15.98
2019-03-19T08:42:23.471Z,16.54
2019-03-19T08:44:53.338Z,16.42
2019-03-19T08:47:34.332Z,16.44
2019-03-19T08:50:11.249Z,16.83
2019-03-19T08:52:40.808Z,17.16
2019-03-19T08:55:10.298Z,17.23
2019-03-19T08:57:39.802Z,17.15
2019-03-19T09:00:15.121Z,17.46
2019-03-19T09:02:44.859Z,17.31
2019-03-19T09:05:15.040Z,16.90
2019-03-19T09:07:44.935Z,17.23
2019-03-19T09:10:15.035Z,17.37
2019-03-19T09:12:44.953Z,17.17
2019-03-19T09:15:16.219Z,16.43
2019-03-19T09:17:45.984Z,16.74
2019-03-19T09:20:15.902Z,16.58
2019-03-19T09:22:45.769Z,17.16
2019-03-19T09:25:15.664Z,17.48
2019-03-19T09:27:45.584Z,17.08
2019-03-19T09:30:16.279Z,17.31
2019-03-19T09:32:46.116Z,16.83
2019-03-19T09:35:16.367Z,17.30
2019-03-19T09:37:57.286Z,17.66
2019-03-19T09:40:19.064Z,17.59
2019-03-19T09:42:49.393Z,17.77
2019-03-19T09:45:19.391Z,18.03
2019-03-19T09:47:49.300Z,18.01
2019-03-19T09:50:19.375Z,17.91
2019-03-19T09:52:49.127Z,18.00
2019-03-19T09:55:18.942Z,18.31
2019-03-19T09:57:48.702Z,18.72
2019-03-19T10:00:19.091Z,18.65
2019-03-19T10:02:49.168Z,19.13
2019-03-19T10:05:19.039Z,19.05
2019-03-19T10:07:49.469Z,18.73
2019-03-19T10:10:24.712Z,18.66
2019-03-19T10:13:18.720Z,18.63
2019-03-19T10:15:48.940Z,18.67
2019-03-19T10:18:18.786Z,18.65
2019-03-19T10:21:01.101Z,18.69
2019-03-19T10:23:50.686Z,18.82
2019-03-19T10:26:22.894Z,18.73
2019-03-19T10:33:11.227Z,18.61
2019-03-19T10:36:00.042Z,18.54
2019-03-19T10:38:46.331Z,18.47
2019-03-19T10:41:16.295Z,18.15
2019-03-19T10:43:46.035Z,17.85
2019-03-19T10:46:15.896Z,17.94
2019-03-19T10:48:45.686Z,18.13
2019-03-19T10:51:15.582Z,18.12
2019-03-19T10:53:45.519Z,18.07
2019-03-19T10:56:15.409Z,18.04
2019-03-19T10:58:45.082Z,18.23
2019-03-19T11:01:19.001Z,18.23
2019-03-19T11:06:52.549Z,18.24
2019-03-19T11:09:22.298Z,18.34
2019-03-19T11:11:52.600Z,18.36
2019-03-19T11:14:23.654Z,18.28
2019-03-19T11:16:53.457Z,18.40
2019-03-19T11:19:23.368Z,18.38
2019-03-19T11:21:53.131Z,18.51
2019-03-19T11:24:22.898Z,18.64
2019-03-19T11:26:52.786Z,18.51
2019-03-19T11:29:22.713Z,18.56
2019-03-19T11:31:52.440Z,18.56
2019-03-19T11:34:22.258Z,18.76
2019-03-19T11:36:57.860Z,18.83
2019-03-19T11:39:23.864Z,18.95
2019-03-19T11:41:53.647Z,18.98
2019-03-19T11:44:23.601Z,18.93
2019-03-19T11:46:53.696Z,18.93
2019-03-19T11:49:23.621Z,18.70
2019-03-19T11:51:53.699Z,18.90
2019-03-19T11:54:24.684Z,18.87
2019-03-19T11:56:54.519Z,18.79
2019-03-19T11:59:24.293Z,18.70
2019-03-19T12:01:54.219Z,18.86
2019-03-19T12:04:23.936Z,19.23
2019-03-19T12:06:54.988Z,19.31
2019-03-19T12:09:24.771Z,19.23
2019-03-19T12:11:54.380Z,19.08
2019-03-19T12:14:24.276Z,18.70
2019-03-19T12:16:54.179Z,18.32
2019-03-19T12:19:24.056Z,17.90
2019-03-19T12:21:53.976Z,17.67
2019-03-19T12:24:23.813Z,17.58
2019-03-19T12:26:53.479Z,17.55
2019-03-19T12:29:23.343Z,17.81
2019-03-19T12:31:53.209Z,17.92
2019-03-19T12:34:23.187Z,18.16
2019-03-19T12:36:52.941Z,18.35
2019-03-19T12:39:22.656Z,18.58
2019-03-19T12:41:52.313Z,18.73
2019-03-19T12:44:22.178Z,18.84
2019-03-19T12:46:53.347Z,18.56
2019-03-19T12:49:23.138Z,18.44
2019-03-19T12:51:54.100Z,18.37
2019-03-19T12:54:24.849Z,18.51
2019-03-19T12:56:54.634Z,18.54
2019-03-19T12:59:24.457Z,18.72
2019-03-19T13:01:54.279Z,18.64
2019-03-19T13:04:24.249Z,18.65
2019-03-19T13:06:54.159Z,19.09
2019-03-19T13:09:24.130Z,19.13
2019-03-19T13:11:53.949Z,19.20
2019-03-19T13:14:23.890Z,19.44
2019-03-19T13:16:53.808Z,19.60
2019-03-19T13:19:24.922Z,20.00
2019-03-19T13:21:54.759Z,20.67
2019-03-19T13:24:24.566Z,21.51
2019-03-19T13:26:54.478Z,22.03
2019-03-19T13:29:24.621Z,22.56
2019-03-19T13:31:54.509Z,23.07
2019-03-19T13:34:24.413Z,23.77
2019-03-19T13:36:54.197Z,23.42
2019-03-19T13:39:24.058Z,23.56
2019-03-19T13:41:55.069Z,24.81
2019-03-19T13:44:24.831Z,25.44
2019-03-19T13:46:54.502Z,24.47
2019-03-19T13:49:24.337Z,24.31
2019-03-19T13:51:54.399Z,24.74
2019-03-19T13:54:24.171Z,24.79
2019-03-19T13:56:54.066Z,24.16
2019-03-19T13:59:23.827Z,22.96
2019-03-19T14:01:53.594Z,22.14
2019-03-19T14:04:23.433Z,21.38
2019-03-19T14:06:53.497Z,21.22
2019-03-19T14:09:23.278Z,20.92
2019-03-19T14:11:54.404Z,20.77
2019-03-19T14:14:24.202Z,20.36
2019-03-19T14:16:54.042Z,20.02
2019-03-19T14:19:24.100Z,19.84
2019-03-19T14:21:53.879Z,20.45
2019-03-19T14:24:23.767Z,21.01
2019-03-19T14:26:53.547Z,20.65
2019-03-19T14:29:23.288Z,20.69
2019-03-19T14:31:53.107Z,20.93
2019-03-19T14:34:22.766Z,20.88
2019-03-19T14:36:52.473Z,21.17
2019-03-19T14:39:22.249Z,20.64
2019-03-19T14:41:52.234Z,20.54
2019-03-19T14:44:22.093Z,20.51
2019-03-19T14:46:51.689Z,19.86
2019-03-19T14:49:21.243Z,20.22
2019-03-19T14:51:50.730Z,20.64
2019-03-19T14:54:20.229Z,19.83
2019-03-19T14:56:49.824Z,19.45
2019-03-19T14:59:19.307Z,19.45
2019-03-19T15:01:49.034Z,19.03
2019-03-19T15:04:19.003Z,18.78
2019-03-19T15:06:48.771Z,18.75
2019-03-19T15:09:18.605Z,18.56
2019-03-19T15:11:48.529Z,18.07
2019-03-19T15:14:18.308Z,17.47
2019-03-19T15:16:47.822Z,17.77
2019-03-19T15:19:17.681Z,17.91
2019-03-19T15:21:47.674Z,17.91
2019-03-19T15:24:17.483Z,17.63
2019-03-19T15:26:47.185Z,17.90
2019-03-19T15:29:17.170Z,17.65
2019-03-19T15:31:47.089Z,17.33
2019-03-19T15:34:16.952Z,17.50
2019-03-19T15:40:02.451Z,17.11
2019-03-19T15:42:32.296Z,16.95
2019-03-19T15:45:02.062Z,16.59
2019-03-19T15:47:31.773Z,16.35
2019-03-19T15:50:01.565Z,16.22
2019-03-19T15:52:31.402Z,16.26
2019-03-19T15:55:01.014Z,16.06
2019-03-19T15:57:30.944Z,15.87
2019-03-19T16:00:00.771Z,15.56
2019-03-19T16:02:30.685Z,15.27
2019-03-19T16:05:00.644Z,15.09
2019-03-19T16:07:30.626Z,14.68
2019-03-19T16:10:00.413Z,14.43
2019-03-19T16:12:30.075Z,13.99
2019-03-19T16:15:01.320Z,13.69
2019-03-19T16:17:31.082Z,13.36
2019-03-19T16:20:00.922Z,13.23
2019-03-19T16:22:32.086Z,13.18
2019-03-19T16:25:01.763Z,13.06
2019-03-19T16:27:31.600Z,12.98
2019-03-19T16:30:01.432Z,12.91
2019-03-19T16:32:31.435Z,12.80
2019-03-19T16:35:01.348Z,12.63
2019-03-19T16:37:31.204Z,12.57
2019-03-19T16:40:01.178Z,12.41
2019-03-19T16:42:30.997Z,12.45
2019-03-19T16:45:00.741Z,12.29
2019-03-19T16:47:30.607Z,12.15
2019-03-19T16:50:00.465Z,12.06
2019-03-19T16:52:30.338Z,12.05
2019-03-19T16:55:00.256Z,11.96
2019-03-19T16:57:31.365Z,11.91
2019-03-19T17:00:01.206Z,11.85
2019-03-19T17:02:30.812Z,11.86
2019-03-19T17:05:01.897Z,11.87
2019-03-19T17:07:31.778Z,11.85
2019-03-19T17:10:01.405Z,11.80
2019-03-19T17:12:31.249Z,11.82
2019-03-19T17:15:01.015Z,11.76
2019-03-19T17:17:31.040Z,11.68
2019-03-19T17:20:00.750Z,11.62
2019-03-19T17:22:30.569Z,11.55
2019-03-19T17:25:00.528Z,11.44
2019-03-19T17:27:30.199Z,11.39
2019-03-19T17:30:00.318Z,11.32
2019-03-19T17:32:31.483Z,11.37
2019-03-19T17:35:01.505Z,11.28
2019-03-19T17:37:31.395Z,11.18
2019-03-19T17:40:02.468Z,11.10
2019-03-19T17:42:32.181Z,10.97
2019-03-19T17:45:01.996Z,10.86
2019-03-19T17:47:32.018Z,10.65
2019-03-19T17:50:01.832Z,10.65
2019-03-19T17:52:31.741Z,10.54
2019-03-19T17:55:01.660Z,10.45
2019-03-19T17:57:31.778Z,10.40
2019-03-19T18:00:01.589Z,10.38
2019-03-19T18:02:31.340Z,10.35
2019-03-19T18:05:02.193Z,10.32
2019-03-19T18:07:32.058Z,10.32
2019-03-19T18:10:03.124Z,10.33
2019-03-19T18:12:32.916Z,10.32
2019-03-19T18:15:02.831Z,10.38
2019-03-19T18:17:33.965Z,10.46
2019-03-19T18:20:04.001Z,10.41
2019-03-19T18:22:33.837Z,10.45
2019-03-19T18:25:05.080Z,10.44
2019-03-19T18:27:34.909Z,10.45
2019-03-19T18:30:05.252Z,10.45
2019-03-19T18:32:35.611Z,10.44
2019-03-19T18:35:06.090Z,10.45
2019-03-19T18:37:36.078Z,10.42
2019-03-19T18:40:05.974Z,10.43
2019-03-19T18:42:36.214Z,10.41
2019-03-19T18:45:06.553Z,10.39
2019-03-19T18:48:16.098Z,10.38
2019-03-19T18:50:45.789Z,10.38
2019-03-19T18:53:15.634Z,10.37
2019-03-19T18:55:45.570Z,10.31
2019-03-19T18:58:15.398Z,10.38
2019-03-19T19:00:45.361Z,10.38
2019-03-19T19:03:15.160Z,10.31
2019-03-19T19:05:44.893Z,10.35
2019-03-19T19:08:14.679Z,10.26
2019-03-19T19:10:44.429Z,10.29
2019-03-19T19:13:14.409Z,10.27
2019-03-19T19:15:44.253Z,10.22
2019-03-19T19:18:14.051Z,10.24
2019-03-19T19:20:43.808Z,10.22
2019-03-19T19:23:13.595Z,10.17
2019-03-19T19:25:43.517Z,10.08
2019-03-19T19:28:13.472Z,10.01
2019-03-19T19:30:43.447Z,10.02
2019-03-19T19:33:13.258Z,10.02
2019-03-19T19:35:43.213Z,10.02
2019-03-19T19:38:12.972Z,10.02
2019-03-19T19:40:42.881Z,10.01
2019-03-19T19:43:12.736Z,10.02
2019-03-19T19:45:42.644Z,10.01
2019-03-19T19:48:12.554Z,10.01
2019-03-19T19:50:42.495Z,9.97
2019-03-19T19:53:12.267Z,10.03
2019-03-19T19:55:42.133Z,10.02
2019-03-19T19:58:11.900Z,10.00
2019-03-19T20:00:41.612Z,9.97
2019-03-19T20:03:12.616Z,9.90
2019-03-19T20:05:42.645Z,9.90
2019-03-19T20:08:12.170Z,9.91
2019-03-19T20:10:42.110Z,9.88
2019-03-19T20:13:12.057Z,9.96
2019-03-19T20:15:42.157Z,10.00
2019-03-19T20:18:11.946Z,9.99
2019-03-19T20:20:42.148Z,9.96
2019-03-19T20:23:11.986Z,9.88
2019-03-19T20:25:41.813Z,9.90
2019-03-19T20:28:11.676Z,9.88
2019-03-19T20:30:41.531Z,9.86
2019-03-19T20:33:11.490Z,9.84
2019-03-19T20:35:41.201Z,9.87
2019-03-19T20:38:11.096Z,9.82
2019-03-19T20:40:40.987Z,9.77
2019-03-19T20:43:10.815Z,9.86
2019-03-19T20:45:40.644Z,9.85
2019-03-19T20:48:12.915Z,9.82
2019-03-19T20:50:42.703Z,9.83
2019-03-19T20:53:12.468Z,9.85
2019-03-19T20:55:42.525Z,9.82
2019-03-19T20:58:12.146Z,9.85
2019-03-19T21:00:41.959Z,9.85
2019-03-19T21:03:11.795Z,9.88
2019-03-19T21:05:41.593Z,9.82
2019-03-19T21:08:11.398Z,9.88
2019-03-19T21:10:41.294Z,9.86
2019-03-19T21:13:11.162Z,9.91
2019-03-19T21:15:40.848Z,9.91
2019-03-19T21:18:10.733Z,9.85
2019-03-19T21:20:40.437Z,9.86
2019-03-19T21:23:10.094Z,9.85
2019-03-19T21:25:39.938Z,9.82
2019-03-19T21:28:14.061Z,9.82
2019-03-19T21:30:41.166Z,9.82
2019-03-19T21:33:10.901Z,9.78
2019-03-19T21:35:40.870Z,9.74
2019-03-19T21:38:10.719Z,9.73
2019-03-19T21:40:40.526Z,9.69
2019-03-19T21:43:10.348Z,9.74
2019-03-19T21:45:40.175Z,9.79
2019-03-19T21:48:09.999Z,9.70
2019-03-19T21:50:39.840Z,9.69
2019-03-19T21:53:09.502Z,9.67
2019-03-19T21:55:39.478Z,9.68
2019-03-19T21:58:09.121Z,9.68
2019-03-19T22:00:38.962Z,9.62
2019-03-19T22:03:10.119Z,9.60
2019-03-19T22:05:39.897Z,9.58
2019-03-19T22:08:09.736Z,9.62
2019-03-19T22:10:39.586Z,9.61
2019-03-19T22:13:09.770Z,9.62
2019-03-19T22:15:39.785Z,9.56
2019-03-19T22:18:09.594Z,9.52
2019-03-19T22:20:39.499Z,9.54
2019-03-19T22:23:09.285Z,9.51
2019-03-19T22:25:39.357Z,9.51
2019-03-19T22:28:09.150Z,9.42
2019-03-19T22:30:38.910Z,9.43
2019-03-19T22:33:08.701Z,9.36
2019-03-19T22:35:38.777Z,9.44
2019-03-19T22:38:08.639Z,9.46
2019-03-19T22:40:38.444Z,9.52
2019-03-19T22:43:08.413Z,9.58
2019-03-19T22:45:38.434Z,9.68
2019-03-19T22:48:08.174Z,9.75
2019-03-19T22:50:37.988Z,9.80
2019-03-19T22:53:07.878Z,9.84
2019-03-19T22:55:37.846Z,9.76
2019-03-19T22:58:07.761Z,9.91
2019-03-19T23:00:42.006Z,9.86
2019-03-19T23:03:12.145Z,9.83
2019-03-19T23:05:42.022Z,9.87
2019-03-19T23:08:11.854Z,9.97
2019-03-19T23:10:41.731Z,10.03
2019-03-19T23:13:12.194Z,10.05
2019-03-19T23:15:42.028Z,10.07
2019-03-19T23:18:12.019Z,10.09
2019-03-19T23:20:41.850Z,10.06
2019-03-19T23:23:11.855Z,10.14
2019-03-19T23:25:41.713Z,10.13
2019-03-19T23:28:11.580Z,10.15
2019-03-19T23:30:41.772Z,10.20
2019-03-19T23:33:11.659Z,10.12
2019-03-19T23:35:41.535Z,10.23
2019-03-19T23:38:11.454Z,10.27
2019-03-19T23:40:41.520Z,10.23
2019-03-19T23:43:11.368Z,10.26
2019-03-19T23:45:41.215Z,10.13
2019-03-19T23:48:11.145Z,10.21
2019-03-19T23:50:41.457Z,10.27
2019-03-19T23:53:11.161Z,10.32
2019-03-19T23:55:41.176Z,10.35
2019-03-19T23:58:11.047Z,10.41
